sensor_id;sensor_type;location;lat;lon;timestamp;pressure;altitude;pressure_sealevel;temperature;humidity
58223;BME280;44020;50.890;15.796;2022-10-22T00:01:04;97323.39;;;9.55;81.90
58223;BME280;44020;50.890;15.796;2022-10-22T00:03:37;97325.39;;;9.54;81.85
58223;BME280;44020;50.890;15.796;2022-10-22T00:06:04;97315.08;;;9.57;81.93
58223;BME280;44020;50.890;15.796;2022-10-22T00:08:31;97310.95;;;9.57;82.10
58223;BME280;44020;50.890;15.796;2022-10-22T00:10:58;97305.83;;;9.57;82.14
58223;BME280;44020;50.890;15.796;2022-10-22T00:13:33;97302.27;;;9.55;82.32
58223;BME280;44020;50.890;15.796;2022-10-22T00:16:00;97298.18;;;9.52;82.43
58223;BME280;44020;50.890;15.796;2022-10-22T00:18:27;97285.83;;;9.52;82.22
58223;BME280;44020;50.890;15.796;2022-10-22T00:20:54;97272.16;;;9.47;82.14
58223;BME280;44020;50.890;15.796;2022-10-22T00:23:21;97272.45;;;9.43;82.35
58223;BME280;44020;50.890;15.796;2022-10-22T00:25:48;97264.16;;;9.43;82.42
58223;BME280;44020;50.890;15.796;2022-10-22T00:28:15;97261.79;;;9.44;82.56
58223;BME280;44020;50.890;15.796;2022-10-22T00:30:42;97260.86;;;9.42;82.70
58223;BME280;44020;50.890;15.796;2022-10-22T00:33:08;97262.42;;;9.42;83.01
58223;BME280;44020;50.890;15.796;2022-10-22T00:35:36;97268.98;;;9.45;83.26
58223;BME280;44020;50.890;15.796;2022-10-22T00:38:04;97273.65;;;9.46;83.49
58223;BME280;44020;50.890;15.796;2022-10-22T00:40:31;97279.34;;;9.43;83.24
58223;BME280;44020;50.890;15.796;2022-10-22T00:42:58;97291.66;;;9.39;83.02
58223;BME280;44020;50.890;15.796;2022-10-22T00:45:26;97301.38;;;9.35;83.01
58223;BME280;44020;50.890;15.796;2022-10-22T00:48:00;97326.22;;;9.35;83.09
58223;BME280;44020;50.890;15.796;2022-10-22T00:53:05;97307.98;;;9.32;83.38
58223;BME280;44020;50.890;15.796;2022-10-22T00:55:34;97308.97;;;9.33;83.56
58223;BME280;44020;50.890;15.796;2022-10-22T00:58:02;97315.63;;;9.34;83.82
58223;BME280;44020;50.890;15.796;2022-10-22T01:00:29;97322.17;;;9.34;83.79
58223;BME280;44020;50.890;15.796;2022-10-22T01:02:57;97330.25;;;9.35;83.82
58223;BME280;44020;50.890;15.796;2022-10-22T01:05:28;97324.59;;;9.30;83.52
58223;BME280;44020;50.890;15.796;2022-10-22T01:07:56;97296.99;;;9.25;83.64
58223;BME280;44020;50.890;15.796;2022-10-22T01:11:14;97289.02;;;9.24;83.69
58223;BME280;44020;50.890;15.796;2022-10-22T01:13:55;97291.91;;;9.22;83.61
58223;BME280;44020;50.890;15.796;2022-10-22T01:16:27;97305.19;;;9.22;83.82
58223;BME280;44020;50.890;15.796;2022-10-22T01:21:35;97304.36;;;9.21;84.20
58223;BME280;44020;50.890;15.796;2022-10-22T01:27:32;97289.61;;;9.21;84.35
58223;BME280;44020;50.890;15.796;2022-10-22T01:30:06;97284.30;;;9.21;84.26
58223;BME280;44020;50.890;15.796;2022-10-22T01:32:38;97281.89;;;9.20;84.36
58223;BME280;44020;50.890;15.796;2022-10-22T01:35:09;97292.48;;;9.23;84.43
58223;BME280;44020;50.890;15.796;2022-10-22T01:37:48;97286.76;;;9.24;84.63
58223;BME280;44020;50.890;15.796;2022-10-22T01:40:17;97275.87;;;9.23;84.71
58223;BME280;44020;50.890;15.796;2022-10-22T01:43:02;97271.53;;;9.24;84.84
58223;BME280;44020;50.890;15.796;2022-10-22T01:45:33;97280.66;;;9.25;85.07
58223;BME280;44020;50.890;15.796;2022-10-22T02:07:22;97293.84;;;9.31;85.89
58223;BME280;44020;50.890;15.796;2022-10-22T02:09:52;97281.29;;;9.33;85.79
58223;BME280;44020;50.890;15.796;2022-10-22T02:12:21;97275.14;;;9.35;85.69
58223;BME280;44020;50.890;15.796;2022-10-22T02:14:50;97276.44;;;9.34;85.58
58223;BME280;44020;50.890;15.796;2022-10-22T02:17:20;97288.30;;;9.35;85.53
58223;BME280;44020;50.890;15.796;2022-10-22T02:20:00;97283.33;;;9.34;85.58
58223;BME280;44020;50.890;15.796;2022-10-22T02:22:29;97280.71;;;9.34;85.59
58223;BME280;44020;50.890;15.796;2022-10-22T02:24:56;97272.11;;;9.35;85.86
58223;BME280;44020;50.890;15.796;2022-10-22T02:27:28;97271.63;;;9.37;86.02
58223;BME280;44020;50.890;15.796;2022-10-22T02:32:31;97271.38;;;9.38;86.21
58223;BME280;44020;50.890;15.796;2022-10-22T02:35:00;97265.98;;;9.39;86.25
58223;BME280;44020;50.890;15.796;2022-10-22T02:37:29;97272.80;;;9.41;86.13
58223;BME280;44020;50.890;15.796;2022-10-22T02:39:56;97275.41;;;9.41;86.05
58223;BME280;44020;50.890;15.796;2022-10-22T02:42:24;97272.93;;;9.41;86.16
58223;BME280;44020;50.890;15.796;2022-10-22T02:44:52;97273.30;;;9.41;86.37
58223;BME280;44020;50.890;15.796;2022-10-22T02:47:19;97279.41;;;9.43;86.74
58223;BME280;44020;50.890;15.796;2022-10-22T02:49:46;97279.48;;;9.46;86.66
58223;BME280;44020;50.890;15.796;2022-10-22T02:52:13;97276.05;;;9.47;86.73
58223;BME280;44020;50.890;15.796;2022-10-22T02:54:40;97278.39;;;9.49;86.70
58223;BME280;44020;50.890;15.796;2022-10-22T02:57:07;97280.34;;;9.49;86.57
58223;BME280;44020;50.890;15.796;2022-10-22T02:59:34;97284.89;;;9.50;86.66
58223;BME280;44020;50.890;15.796;2022-10-22T03:02:02;97286.33;;;9.52;86.76
58223;BME280;44020;50.890;15.796;2022-10-22T03:04:29;97292.34;;;9.55;87.09
58223;BME280;44020;50.890;15.796;2022-10-22T03:06:56;97292.70;;;9.57;87.17
58223;BME280;44020;50.890;15.796;2022-10-22T03:09:23;97292.11;;;9.55;87.12
58223;BME280;44020;50.890;15.796;2022-10-22T03:11:50;97291.09;;;9.55;87.38
58223;BME280;44020;50.890;15.796;2022-10-22T03:14:17;97288.48;;;9.54;87.41
58223;BME280;44020;50.890;15.796;2022-10-22T03:16:44;97288.19;;;9.53;87.45
58223;BME280;44020;50.890;15.796;2022-10-22T03:19:11;97295.22;;;9.56;87.58
58223;BME280;44020;50.890;15.796;2022-10-22T03:24:12;97297.80;;;9.60;87.79
58223;BME280;44020;50.890;15.796;2022-10-22T03:26:41;97296.56;;;9.63;87.98
58223;BME280;44020;50.890;15.796;2022-10-22T03:29:11;97293.98;;;9.64;87.96
58223;BME280;44020;50.890;15.796;2022-10-22T03:31:39;97283.90;;;9.64;87.99
58223;BME280;44020;50.890;15.796;2022-10-22T03:34:06;97277.27;;;9.64;88.05
58223;BME280;44020;50.890;15.796;2022-10-22T03:36:33;97269.99;;;9.64;87.95
58223;BME280;44020;50.890;15.796;2022-10-22T03:39:01;97273.89;;;9.67;87.83
58223;BME280;44020;50.890;15.796;2022-10-22T03:41:28;97267.92;;;9.66;87.83
58223;BME280;44020;50.890;15.796;2022-10-22T03:43:56;97264.16;;;9.67;87.92
58223;BME280;44020;50.890;15.796;2022-10-22T03:46:23;97264.41;;;9.66;88.02
58223;BME280;44020;50.890;15.796;2022-10-22T03:48:51;97262.58;;;9.64;88.12
58223;BME280;44020;50.890;15.796;2022-10-22T03:51:18;97270.77;;;9.64;88.09
58223;BME280;44020;50.890;15.796;2022-10-22T03:53:45;97275.40;;;9.63;88.14
58223;BME280;44020;50.890;15.796;2022-10-22T03:56:12;97271.64;;;9.64;88.13
58223;BME280;44020;50.890;15.796;2022-10-22T03:58:40;97262.07;;;9.66;88.10
58223;BME280;44020;50.890;15.796;2022-10-22T04:01:11;97260.25;;;9.67;88.12
58223;BME280;44020;50.890;15.796;2022-10-22T04:03:39;97262.42;;;9.66;88.43
58223;BME280;44020;50.890;15.796;2022-10-22T04:06:09;97269.58;;;9.68;88.47
58223;BME280;44020;50.890;15.796;2022-10-22T04:08:41;97276.88;;;9.70;88.48
58223;BME280;44020;50.890;15.796;2022-10-22T04:11:10;97284.44;;;9.71;88.50
58223;BME280;44020;50.890;15.796;2022-10-22T04:13:38;97287.61;;;9.71;88.52
58223;BME280;44020;50.890;15.796;2022-10-22T04:16:17;97285.40;;;9.72;88.47
58223;BME280;44020;50.890;15.796;2022-10-22T04:18:45;97289.73;;;9.73;88.52
58223;BME280;44020;50.890;15.796;2022-10-22T04:21:15;97291.58;;;9.75;88.55
58223;BME280;44020;50.890;15.796;2022-10-22T04:23:47;97304.20;;;9.76;88.80
58223;BME280;44020;50.890;15.796;2022-10-22T04:26:15;97315.29;;;9.78;88.84
58223;BME280;44020;50.890;15.796;2022-10-22T04:28:44;97311.50;;;9.79;88.98
58223;BME280;44020;50.890;15.796;2022-10-22T04:31:13;97313.73;;;9.80;89.11
58223;BME280;44020;50.890;15.796;2022-10-22T04:33:41;97311.64;;;9.82;89.19
58223;BME280;44020;50.890;15.796;2022-10-22T04:36:09;97308.19;;;9.83;88.98
58223;BME280;44020;50.890;15.796;2022-10-22T04:38:38;97306.04;;;9.84;89.09
58223;BME280;44020;50.890;15.796;2022-10-22T04:43:41;97286.26;;;9.85;89.55
58223;BME280;44020;50.890;15.796;2022-10-22T04:46:09;97286.46;;;9.87;89.64
58223;BME280;44020;50.890;15.796;2022-10-22T04:48:38;97280.38;;;9.87;89.81
58223;BME280;44020;50.890;15.796;2022-10-22T04:51:07;97285.20;;;9.87;89.85
58223;BME280;44020;50.890;15.796;2022-10-22T04:53:35;97285.17;;;9.87;89.62
58223;BME280;44020;50.890;15.796;2022-10-22T04:56:10;97285.95;;;9.87;89.73
58223;BME280;44020;50.890;15.796;2022-10-22T04:58:38;97286.08;;;9.87;89.63
58223;BME280;44020;50.890;15.796;2022-10-22T05:01:13;97285.56;;;9.87;89.67
58223;BME280;44020;50.890;15.796;2022-10-22T05:03:41;97294.56;;;9.88;89.83
58223;BME280;44020;50.890;15.796;2022-10-22T05:06:08;97301.35;;;9.89;89.83
58223;BME280;44020;50.890;15.796;2022-10-22T05:08:36;97305.89;;;9.91;89.92
58223;BME280;44020;50.890;15.796;2022-10-22T05:11:15;97318.80;;;9.91;89.96
58223;BME280;44020;50.890;15.796;2022-10-22T05:13:43;97329.58;;;9.89;89.90
58223;BME280;44020;50.890;15.796;2022-10-22T05:16:11;97325.34;;;9.89;89.95
58223;BME280;44020;50.890;15.796;2022-10-22T05:18:41;97323.91;;;9.89;89.93
58223;BME280;44020;50.890;15.796;2022-10-22T05:21:16;97328.99;;;9.87;89.88
58223;BME280;44020;50.890;15.796;2022-10-22T05:23:46;97329.41;;;9.87;90.18
58223;BME280;44020;50.890;15.796;2022-10-22T05:26:16;97330.36;;;9.88;90.43
58223;BME280;44020;50.890;15.796;2022-10-22T05:28:44;97332.59;;;9.89;90.51
58223;BME280;44020;50.890;15.796;2022-10-22T05:31:12;97322.60;;;9.92;90.91
58223;BME280;44020;50.890;15.796;2022-10-22T05:33:41;97324.77;;;9.94;90.93
58223;BME280;44020;50.890;15.796;2022-10-22T05:36:12;97325.45;;;9.95;90.85
58223;BME280;44020;50.890;15.796;2022-10-22T05:38:39;97327.65;;;9.93;90.73
58223;BME280;44020;50.890;15.796;2022-10-22T05:41:08;97331.92;;;9.93;90.64
58223;BME280;44020;50.890;15.796;2022-10-22T05:43:39;97331.66;;;9.94;90.64
58223;BME280;44020;50.890;15.796;2022-10-22T05:46:12;97327.48;;;9.96;90.63
58223;BME280;44020;50.890;15.796;2022-10-22T05:48:40;97319.75;;;9.97;90.88
58223;BME280;44020;50.890;15.796;2022-10-22T05:51:10;97321.69;;;9.97;90.91
58223;BME280;44020;50.890;15.796;2022-10-22T05:53:40;97319.58;;;9.99;91.01
58223;BME280;44020;50.890;15.796;2022-10-22T05:56:11;97317.88;;;10.00;91.18
58223;BME280;44020;50.890;15.796;2022-10-22T05:58:39;97322.41;;;10.02;91.06
58223;BME280;44020;50.890;15.796;2022-10-22T06:01:11;97316.07;;;10.01;90.95
58223;BME280;44020;50.890;15.796;2022-10-22T06:03:39;97316.23;;;9.99;90.57
58223;BME280;44020;50.890;15.796;2022-10-22T06:06:21;97314.52;;;9.98;90.82
58223;BME280;44020;50.890;15.796;2022-10-22T06:08:53;97319.35;;;9.98;90.93
58223;BME280;44020;50.890;15.796;2022-10-22T06:11:22;97322.42;;;9.99;90.91
58223;BME280;44020;50.890;15.796;2022-10-22T06:13:50;97320.92;;;10.00;91.03
58223;BME280;44020;50.890;15.796;2022-10-22T06:16:17;97325.73;;;10.03;91.13
58223;BME280;44020;50.890;15.796;2022-10-22T06:18:44;97330.98;;;10.04;91.28
58223;BME280;44020;50.890;15.796;2022-10-22T06:21:13;97326.83;;;10.05;91.15
58223;BME280;44020;50.890;15.796;2022-10-22T06:23:41;97327.09;;;10.06;91.08
58223;BME280;44020;50.890;15.796;2022-10-22T06:26:09;97329.45;;;10.07;91.10
58223;BME280;44020;50.890;15.796;2022-10-22T06:28:37;97332.66;;;10.10;91.00
58223;BME280;44020;50.890;15.796;2022-10-22T06:31:05;97338.92;;;10.09;90.97
58223;BME280;44020;50.890;15.796;2022-10-22T06:33:33;97340.48;;;10.10;91.08
58223;BME280;44020;50.890;15.796;2022-10-22T06:36:12;97337.16;;;10.11;91.02
58223;BME280;44020;50.890;15.796;2022-10-22T06:38:40;97344.42;;;10.14;91.23
58223;BME280;44020;50.890;15.796;2022-10-22T06:41:09;97345.00;;;10.15;91.41
58223;BME280;44020;50.890;15.796;2022-10-22T06:43:36;97344.52;;;10.17;91.23
58223;BME280;44020;50.890;15.796;2022-10-22T06:46:06;97343.31;;;10.17;91.16
58223;BME280;44020;50.890;15.796;2022-10-22T06:48:36;97339.73;;;10.17;91.05
58223;BME280;44020;50.890;15.796;2022-10-22T06:51:05;97339.92;;;10.19;91.34
58223;BME280;44020;50.890;15.796;2022-10-22T06:53:34;97344.84;;;10.20;91.29
58223;BME280;44020;50.890;15.796;2022-10-22T06:56:09;97342.94;;;10.22;91.07
58223;BME280;44020;50.890;15.796;2022-10-22T06:58:37;97349.42;;;10.23;91.46
58223;BME280;44020;50.890;15.796;2022-10-22T07:01:10;97357.57;;;10.26;91.54
58223;BME280;44020;50.890;15.796;2022-10-22T07:03:39;97356.42;;;10.27;91.67
58223;BME280;44020;50.890;15.796;2022-10-22T07:06:12;97354.55;;;10.28;91.70
58223;BME280;44020;50.890;15.796;2022-10-22T07:08:41;97357.64;;;10.30;91.90
58223;BME280;44020;50.890;15.796;2022-10-22T07:11:19;97358.20;;;10.30;91.79
58223;BME280;44020;50.890;15.796;2022-10-22T07:13:47;97357.72;;;10.31;91.69
58223;BME280;44020;50.890;15.796;2022-10-22T07:16:16;97358.23;;;10.32;91.90
58223;BME280;44020;50.890;15.796;2022-10-22T07:18:44;97365.98;;;10.33;92.09
58223;BME280;44020;50.890;15.796;2022-10-22T07:21:13;97368.48;;;10.34;92.21
58223;BME280;44020;50.890;15.796;2022-10-22T07:23:41;97371.83;;;10.37;92.37
58223;BME280;44020;50.890;15.796;2022-10-22T07:26:09;97363.41;;;10.38;92.62
58223;BME280;44020;50.890;15.796;2022-10-22T07:28:37;97368.98;;;10.39;92.61
58223;BME280;44020;50.890;15.796;2022-10-22T07:31:07;97376.42;;;10.40;92.68
58223;BME280;44020;50.890;15.796;2022-10-22T07:33:35;97378.95;;;10.42;92.86
58223;BME280;44020;50.890;15.796;2022-10-22T07:36:05;97387.49;;;10.44;92.97
58223;BME280;44020;50.890;15.796;2022-10-22T07:38:34;97387.92;;;10.48;93.21
58223;BME280;44020;50.890;15.796;2022-10-22T07:41:03;97388.29;;;10.52;93.46
58223;BME280;44020;50.890;15.796;2022-10-22T07:43:30;97384.81;;;10.56;93.55
58223;BME280;44020;50.890;15.796;2022-10-22T07:45:57;97377.70;;;10.58;93.90
58223;BME280;44020;50.890;15.796;2022-10-22T07:48:26;97378.26;;;10.60;93.80
58223;BME280;44020;50.890;15.796;2022-10-22T07:50:53;97383.63;;;10.62;94.06
58223;BME280;44020;50.890;15.796;2022-10-22T07:53:20;97379.58;;;10.67;93.99
58223;BME280;44020;50.890;15.796;2022-10-22T07:55:48;97383.77;;;10.70;94.26
58223;BME280;44020;50.890;15.796;2022-10-22T07:58:17;97384.54;;;10.74;94.32
58223;BME280;44020;50.890;15.796;2022-10-22T08:00:44;97387.46;;;10.77;94.38
58223;BME280;44020;50.890;15.796;2022-10-22T08:03:13;97395.27;;;10.82;94.37
58223;BME280;44020;50.890;15.796;2022-10-22T08:05:41;97401.74;;;10.86;94.21
58223;BME280;44020;50.890;15.796;2022-10-22T08:08:12;97406.58;;;10.88;94.13
58223;BME280;44020;50.890;15.796;2022-10-22T08:10:40;97407.20;;;10.91;94.17
58223;BME280;44020;50.890;15.796;2022-10-22T08:13:07;97408.17;;;10.92;94.04
58223;BME280;44020;50.890;15.796;2022-10-22T08:15:35;97408.27;;;10.93;93.92
58223;BME280;44020;50.890;15.796;2022-10-22T08:18:02;97404.34;;;10.96;94.07
58223;BME280;44020;50.890;15.796;2022-10-22T08:20:29;97405.97;;;10.98;94.16
58223;BME280;44020;50.890;15.796;2022-10-22T08:22:56;97408.89;;;10.99;94.33
58223;BME280;44020;50.890;15.796;2022-10-22T08:25:24;97402.81;;;11.02;94.49
58223;BME280;44020;50.890;15.796;2022-10-22T08:27:52;97401.23;;;11.04;94.50
58223;BME280;44020;50.890;15.796;2022-10-22T08:30:19;97398.17;;;11.05;94.56
58223;BME280;44020;50.890;15.796;2022-10-22T08:32:46;97399.25;;;11.07;94.60
58223;BME280;44020;50.890;15.796;2022-10-22T08:35:13;97399.91;;;11.08;94.43
58223;BME280;44020;50.890;15.796;2022-10-22T08:37:40;97403.60;;;11.08;94.58
58223;BME280;44020;50.890;15.796;2022-10-22T08:40:09;97407.26;;;11.09;94.55
58223;BME280;44020;50.890;15.796;2022-10-22T08:43:10;97408.69;;;11.11;94.97
58223;BME280;44020;50.890;15.796;2022-10-22T08:45:49;97412.36;;;11.14;95.24
58223;BME280;44020;50.890;15.796;2022-10-22T08:48:51;97420.09;;;11.16;95.38
58223;BME280;44020;50.890;15.796;2022-10-22T08:51:38;97426.30;;;11.18;95.53
58223;BME280;44020;50.890;15.796;2022-10-22T08:54:21;97426.76;;;11.19;95.26
58223;BME280;44020;50.890;15.796;2022-10-22T08:57:08;97428.64;;;11.20;95.49
58223;BME280;44020;50.890;15.796;2022-10-22T08:59:45;97434.77;;;11.23;95.60
58223;BME280;44020;50.890;15.796;2022-10-22T09:02:55;97441.89;;;11.28;95.88
58223;BME280;44020;50.890;15.796;2022-10-22T09:07:57;97442.90;;;11.33;96.03
58223;BME280;44020;50.890;15.796;2022-10-22T09:10:28;97436.86;;;11.36;96.04
58223;BME280;44020;50.890;15.796;2022-10-22T09:12:56;97435.65;;;11.37;96.01
58223;BME280;44020;50.890;15.796;2022-10-22T09:15:22;97432.55;;;11.40;95.97
58223;BME280;44020;50.890;15.796;2022-10-22T09:23:19;97444.35;;;11.52;96.07
58223;BME280;44020;50.890;15.796;2022-10-22T09:25:49;97447.06;;;11.58;96.43
58223;BME280;44020;50.890;15.796;2022-10-22T09:28:17;97445.52;;;11.64;96.52
58223;BME280;44020;50.890;15.796;2022-10-22T09:30:45;97450.74;;;11.67;96.62
58223;BME280;44020;50.890;15.796;2022-10-22T09:33:22;97446.75;;;11.71;96.88
58223;BME280;44020;50.890;15.796;2022-10-22T09:35:56;97446.17;;;11.73;96.80
58223;BME280;44020;50.890;15.796;2022-10-22T09:38:29;97440.42;;;11.78;97.03
58223;BME280;44020;50.890;15.796;2022-10-22T09:40:58;97439.83;;;11.82;97.13
58223;BME280;44020;50.890;15.796;2022-10-22T09:43:26;97439.69;;;11.85;97.34
58223;BME280;44020;50.890;15.796;2022-10-22T09:45:58;97437.52;;;11.91;97.45
58223;BME280;44020;50.890;15.796;2022-10-22T09:48:33;97439.13;;;11.97;97.63
58223;BME280;44020;50.890;15.796;2022-10-22T09:53:45;97439.42;;;12.12;97.77
58223;BME280;44020;50.890;15.796;2022-10-22T09:56:34;97432.63;;;12.17;97.84
58223;BME280;44020;50.890;15.796;2022-10-22T09:59:02;97435.80;;;12.23;97.95
58223;BME280;44020;50.890;15.796;2022-10-22T10:01:32;97429.74;;;12.27;97.82
58223;BME280;44020;50.890;15.796;2022-10-22T10:04:05;97426.67;;;12.35;97.77
58223;BME280;44020;50.890;15.796;2022-10-22T10:06:34;97445.11;;;12.42;97.78
58223;BME280;44020;50.890;15.796;2022-10-22T10:09:01;97446.70;;;12.49;97.81
58223;BME280;44020;50.890;15.796;2022-10-22T10:16:59;97459.17;;;12.60;97.92
58223;BME280;44020;50.890;15.796;2022-10-22T10:19:42;97461.30;;;12.64;97.59
58223;BME280;44020;50.890;15.796;2022-10-22T10:27:24;97443.91;;;12.74;97.88
58223;BME280;44020;50.890;15.796;2022-10-22T10:30:21;97443.73;;;12.81;97.73
58223;BME280;44020;50.890;15.796;2022-10-22T10:35:52;97442.67;;;12.91;98.05
58223;BME280;44020;50.890;15.796;2022-10-22T10:41:17;97433.11;;;13.01;98.27
58223;BME280;44020;50.890;15.796;2022-10-22T10:43:58;97425.48;;;13.07;98.47
58223;BME280;44020;50.890;15.796;2022-10-22T10:46:32;97424.70;;;13.09;98.41
58223;BME280;44020;50.890;15.796;2022-10-22T10:51:56;97426.40;;;13.12;98.50
58223;BME280;44020;50.890;15.796;2022-10-22T10:55:12;97430.79;;;13.16;98.41
58223;BME280;44020;50.890;15.796;2022-10-22T10:57:57;97436.86;;;13.20;98.71
58223;BME280;44020;50.890;15.796;2022-10-22T11:00:31;97436.91;;;13.23;98.66
58223;BME280;44020;50.890;15.796;2022-10-22T11:03:16;97440.41;;;13.26;98.72
58223;BME280;44020;50.890;15.796;2022-10-22T11:05:53;97445.20;;;13.31;98.92
58223;BME280;44020;50.890;15.796;2022-10-22T11:08:31;97438.14;;;13.34;98.84
58223;BME280;44020;50.890;15.796;2022-10-22T11:11:06;97445.66;;;13.37;98.72
58223;BME280;44020;50.890;15.796;2022-10-22T11:14:00;97451.02;;;13.38;98.61
58223;BME280;44020;50.890;15.796;2022-10-22T11:16:34;97449.04;;;13.41;98.46
58223;BME280;44020;50.890;15.796;2022-10-22T11:19:33;97446.42;;;13.42;98.60
58223;BME280;44020;50.890;15.796;2022-10-22T11:22:32;97447.42;;;13.45;98.67
58223;BME280;44020;50.890;15.796;2022-10-22T11:25:30;97454.54;;;13.47;98.73
58223;BME280;44020;50.890;15.796;2022-10-22T11:28:04;97466.83;;;13.49;98.76
58223;BME280;44020;50.890;15.796;2022-10-22T11:30:35;97471.86;;;13.49;98.68
58223;BME280;44020;50.890;15.796;2022-10-22T11:33:10;97470.44;;;13.49;98.57
58223;BME280;44020;50.890;15.796;2022-10-22T11:35:41;97466.80;;;13.48;98.54
58223;BME280;44020;50.890;15.796;2022-10-22T11:38:16;97458.58;;;13.48;98.42
58223;BME280;44020;50.890;15.796;2022-10-22T11:40:50;97458.59;;;13.50;98.49
58223;BME280;44020;50.890;15.796;2022-10-22T11:43:33;97464.63;;;13.50;98.75
58223;BME280;44020;50.890;15.796;2022-10-22T11:46:24;97465.52;;;13.52;98.83
58223;BME280;44020;50.890;15.796;2022-10-22T11:49:13;97461.82;;;13.54;98.99
58223;BME280;44020;50.890;15.796;2022-10-22T11:51:43;97461.95;;;13.57;99.16
58223;BME280;44020;50.890;15.796;2022-10-22T11:57:21;97455.91;;;13.60;99.14
58223;BME280;44020;50.890;15.796;2022-10-22T11:59:56;97455.95;;;13.62;99.09
58223;BME280;44020;50.890;15.796;2022-10-22T12:05:06;97450.30;;;13.65;99.30
58223;BME280;44020;50.890;15.796;2022-10-22T12:10:18;97449.09;;;13.71;99.58
58223;BME280;44020;50.890;15.796;2022-10-22T12:13:23;97442.41;;;13.74;99.47
58223;BME280;44020;50.890;15.796;2022-10-22T12:15:53;97439.54;;;13.78;99.52
58223;BME280;44020;50.890;15.796;2022-10-22T12:18:37;97432.88;;;13.85;99.57
58223;BME280;44020;50.890;15.796;2022-10-22T12:21:11;97429.66;;;13.93;99.67
58223;BME280;44020;50.890;15.796;2022-10-22T12:23:39;97435.95;;;13.99;99.77
58223;BME280;44020;50.890;15.796;2022-10-22T12:26:22;97436.58;;;14.04;99.77
58223;BME280;44020;50.890;15.796;2022-10-22T12:28:50;97435.74;;;14.07;99.65
58223;BME280;44020;50.890;15.796;2022-10-22T12:31:22;97435.41;;;14.09;99.65
58223;BME280;44020;50.890;15.796;2022-10-22T12:33:56;97438.23;;;14.09;99.42
58223;BME280;44020;50.890;15.796;2022-10-22T12:36:29;97442.77;;;14.10;99.24
58223;BME280;44020;50.890;15.796;2022-10-22T12:39:03;97442.16;;;14.11;99.11
58223;BME280;44020;50.890;15.796;2022-10-22T12:41:31;97441.63;;;14.11;99.13
58223;BME280;44020;50.890;15.796;2022-10-22T12:43:59;97443.38;;;14.11;98.99
58223;BME280;44020;50.890;15.796;2022-10-22T12:46:29;97445.85;;;14.10;98.98
58223;BME280;44020;50.890;15.796;2022-10-22T12:49:03;97448.80;;;14.09;99.10
58223;BME280;44020;50.890;15.796;2022-10-22T12:51:31;97453.77;;;14.09;99.07
58223;BME280;44020;50.890;15.796;2022-10-22T12:54:25;97459.05;;;14.08;98.89
58223;BME280;44020;50.890;15.796;2022-10-22T12:56:54;97458.89;;;14.06;98.71
58223;BME280;44020;50.890;15.796;2022-10-22T12:59:24;97457.85;;;14.04;98.73
58223;BME280;44020;50.890;15.796;2022-10-22T13:01:53;97463.32;;;14.02;98.94
58223;BME280;44020;50.890;15.796;2022-10-22T13:04:31;97464.70;;;13.97;98.69
58223;BME280;44020;50.890;15.796;2022-10-22T13:09:43;97470.48;;;13.86;98.04
58223;BME280;44020;50.890;15.796;2022-10-22T13:12:11;97478.10;;;13.78;98.81
58223;BME280;44020;50.890;15.796;2022-10-22T13:14:44;97480.20;;;13.69;99.17
58223;BME280;44020;50.890;15.796;2022-10-22T13:17:19;97479.49;;;13.64;99.66
58223;BME280;44020;50.890;15.796;2022-10-22T13:30:54;97491.02;;;13.63;100.00
58223;BME280;44020;50.890;15.796;2022-10-22T13:33:33;97492.95;;;13.61;100.00
58223;BME280;44020;50.890;15.796;2022-10-22T13:36:02;97492.30;;;13.63;100.00
58223;BME280;44020;50.890;15.796;2022-10-22T13:38:29;97493.55;;;13.63;99.99
58223;BME280;44020;50.890;15.796;2022-10-22T13:40:57;97498.60;;;13.64;99.97
58223;BME280;44020;50.890;15.796;2022-10-22T13:43:25;97498.42;;;13.66;100.00
58223;BME280;44020;50.890;15.796;2022-10-22T13:45:54;97498.50;;;13.67;99.99
58223;BME280;44020;50.890;15.796;2022-10-22T13:48:25;97501.02;;;13.67;99.93
58223;BME280;44020;50.890;15.796;2022-10-22T13:50:53;97502.25;;;13.69;100.00
58223;BME280;44020;50.890;15.796;2022-10-22T13:53:23;97504.66;;;13.70;100.00
58223;BME280;44020;50.890;15.796;2022-10-22T13:55:51;97508.49;;;13.73;100.00
58223;BME280;44020;50.890;15.796;2022-10-22T13:58:20;97508.14;;;13.75;100.00
58223;BME280;44020;50.890;15.796;2022-10-22T14:00:53;97513.69;;;13.75;99.99
58223;BME280;44020;50.890;15.796;2022-10-22T14:03:27;97516.13;;;13.76;99.81
58223;BME280;44020;50.890;15.796;2022-10-22T14:05:55;97519.17;;;13.76;99.62
58223;BME280;44020;50.890;15.796;2022-10-22T14:08:25;97515.42;;;13.76;99.45
58223;BME280;44020;50.890;15.796;2022-10-22T14:10:53;97517.81;;;13.77;99.49
58223;BME280;44020;50.890;15.796;2022-10-22T14:13:20;97518.33;;;13.78;99.36
58223;BME280;44020;50.890;15.796;2022-10-22T14:15:49;97515.38;;;13.79;99.31
58223;BME280;44020;50.890;15.796;2022-10-22T14:18:22;97519.50;;;13.81;99.34
58223;BME280;44020;50.890;15.796;2022-10-22T14:20:54;97515.46;;;13.82;99.29
58223;BME280;44020;50.890;15.796;2022-10-22T14:23:24;97521.55;;;13.81;99.23
58223;BME280;44020;50.890;15.796;2022-10-22T14:25:52;97526.26;;;13.81;99.28
58223;BME280;44020;50.890;15.796;2022-10-22T14:28:20;97522.17;;;13.80;99.33
58223;BME280;44020;50.890;15.796;2022-10-22T14:30:47;97524.13;;;13.81;99.36
58223;BME280;44020;50.890;15.796;2022-10-22T14:33:21;97524.33;;;13.81;99.40
58223;BME280;44020;50.890;15.796;2022-10-22T14:35:49;97528.10;;;13.82;99.48
58223;BME280;44020;50.890;15.796;2022-10-22T14:38:17;97529.07;;;13.88;99.72
58223;BME280;44020;50.890;15.796;2022-10-22T14:40:45;97532.58;;;13.94;99.85
58223;BME280;44020;50.890;15.796;2022-10-22T14:45:44;97529.13;;;14.01;99.96
58223;BME280;44020;50.890;15.796;2022-10-22T14:48:11;97530.08;;;14.05;99.99